Cape Lisburne, Cape Lisburne LRRS Airport (PALU)

NameCape Lisburne LRRS Airport
CityCape Lisburne
CountryUnited States
ICAOPALU
IATALUR
Altitude5 m
CoordinatesGoogle Map
Live Air TrafficLiveATC.net
METARPALU 210855Z AUTO 02015KT 5SM -SN BKN015 M21/M23 A3008
2019-03-21 08:55:00 Wind: North (20°) 7.72 m/s - Visibility: 8046.7 m - Weather: Light Snow - Temperature: -21 °C - Dew point: -23 °C - Humidity: 84.1% - Pressure: 1018.63 hPa

Sorry, no flights used the airport in this database.